Yangcheng, China
Current Conditions -  °F | °C
As of 12:00 AM on Friday 19 Dec 2014 (Local Time) from ZHCC Reporting Station
Clear Clear  
Wind Chill: 38°   Ceiling: Unl
Heat Index: 41°   Visibility: 6mi
Dew Point: 23°   Wind: 4mph
Humidity: 49%   Direction: 200°SSW
Pressure: 30.27"   Gusts: NA
Location:  35.48°N, 112.4°E
Report Text: ZHCC 181600Z 20002MPS 170V250 CAVOK 05/M05 Q1025 NOSIG
Loading
Personal Weather Stations






























Interactive Weather Map New forecast layout! Learn more

10-Day Weather Forecast

Advertisements
Track Severe Weather on mobile